EDDS

Stuttgart Airport

Stuttgart, Germany
METAR EDDS 232220Z 06011KT 9999 BKN029 M01/M06 Q1015
Observed Flight Rules
Feb-23 @ 22:20 UTC (18 minutes ago) Marginal Visual Flight Rules
Wind Visibility Clouds
60° at 11 knots 10,000+ meters
  • Broken at 2,900' AGL
Temperatures Readings
Current -1°C / 30°F
Dewpoint -6°C / 21°F
Humidity 69%
Altimeter 29.97" Hg
Pressure 1015 hPa
Elevation 419
METAR EDDS 232220Z 06011KT 9999 BKN029 M01/M06 Q1015
Observed Flight Rules
Feb-23 @ 22:20 UTC
(18 minutes ago)
MVFR
Wind Visibility
60° at 11 knots 10,000+ meters
Clouds
  • Broken at 2,900' AGL
Temperature Dewpoint
-1°C / 30°F -6°C / 21°F
Humidity Altimeter Pressure
69% 29.97" Hg 1015 hPa